Anchorage/Lake Hood Seaplane Base, Alaska
Current Conditions -  °F | °C
As of 3:53 PM on Saturday 25 Oct 2014 (Local Time) from PALH Reporting Station
Clear Clear  
Wind Chill: 35°   Ceiling: Unl
Heat Index: 35°   Visibility: 10mi
Dew Point: 24°   Wind: 3mph
Humidity: 64%   Direction: 310°NW
Pressure: 29.86"   Gusts: NA
Location:  61.18°N, 149.97°W
Report Text: PALH 252353Z 31003KT 10SM CLR 02/M04 A2986 RMK AO2 SLP110 T00171044 10028 20000 57012
Loading
Personal Weather Stations






























Interactive Weather Map
Tropical Storm Tracking
New forecast layout! Learn more

10-Day Weather Forecast

Advertisements
Track Severe Weather on mobile